Laughlin Air Force Base
KDLF : now visible

Aeroporto :











RITROVATECI SU...

 
LOGIN :

Iscrizione | Disclaimer

   EN    FR    IT 

 









Sommario :    VFR   VFR Marginale   IFR   IFR Intensivo   IFR Molto Intensivo
Visibilità : 
Base nubi : 
>= 8 km
>= 3000ft
5 / 8 km
1000 / 3000 ft
1500m / 5 km
500 / 1000 ft
800 / 1500m
200 / 500 ft
< 800m
< 200 ft
Simboli :   Temporali  Nebbia  Neve Forte  Precipitazioni Forti  Vento > 20 kt







- Altitudine del aeroporto : 1082 ft


KDLF - Laughlin Air Force Base

ULTIMO METAR :
  • 190156Z 12005KT 10SM FEW070 32/16 A2981 RMK AO2A SLPNO T03220156 RVRNO $

METARs OBSOLETI :
  • 190056Z 12005KT 10SM FEW070 35/15 A2979 RMK AO2A SLPNO T03480151 RVRNO $
  • 182356Z 14005KT 10SM FEW070 38/14 A2979 RMK AO2A SLP073 T03760135 10388 20354 55009 RVRNO $

TAF TAF KDLF
Valido dal 18 a 18 ore il 20 a 00 ore UTC


181800Z 1818/1924 13009KT 9999 SCT060 QNH2980INS
BECMG 1902/1903 09006KT 9999 FEW070 QNH2984INS
BECMG 1915/1916 14009KT 9999 SCT070 QNH2976INS TX37/1821Z TN23/1912Z
Nessun NOTAM noto per questo aeroporto.



MetMap, La meteo Aeronautica in un colpo d'occhio ! - Copyright ORBIFLY Dicembre 2007 - Disclaimer

ORBIFLY MET'MAP TEAM :

Programmazione e sviluppo : Alexandra Zaïnal
Concezione e sviluppo : Baudouin d'Aumeries
Co-Programmazione e sviluppo : Marc-Olivier Méhu
Supporto tecnico e logistico : Manuel Goepfert
Aiuto per la traduzione : Arnaldo La Scala

Contatto : metmap@orbifly.com




FONTI E CREDITI :

   NOAA       Earth
Advisory